sensor_id;sensor_type;location;lat;lon;timestamp;P1;durP1;ratioP1;P2;durP2;ratioP2
18899;SDS011;9582;52.018;6.306;2023-04-03T00:01:02;3.80;;;1.50;;
18899;SDS011;9582;52.018;6.306;2023-04-03T00:03:29;2.80;;;1.60;;
18899;SDS011;9582;52.018;6.306;2023-04-03T00:05:56;4.00;;;2.27;;
18899;SDS011;9582;52.018;6.306;2023-04-03T00:08:23;3.83;;;1.87;;
18899;SDS011;9582;52.018;6.306;2023-04-03T00:10:50;2.27;;;1.57;;
18899;SDS011;9582;52.018;6.306;2023-04-03T00:13:17;2.10;;;1.60;;
18899;SDS011;9582;52.018;6.306;2023-04-03T00:15:44;3.47;;;1.87;;
18899;SDS011;9582;52.018;6.306;2023-04-03T00:18:10;3.13;;;1.50;;
18899;SDS011;9582;52.018;6.306;2023-04-03T00:20:37;2.57;;;1.50;;
18899;SDS011;9582;52.018;6.306;2023-04-03T00:23:04;2.37;;;1.47;;
18899;SDS011;9582;52.018;6.306;2023-04-03T00:25:30;3.07;;;1.67;;
18899;SDS011;9582;52.018;6.306;2023-04-03T00:27:58;2.43;;;1.53;;
18899;SDS011;9582;52.018;6.306;2023-04-03T00:30:25;3.07;;;1.60;;
18899;SDS011;9582;52.018;6.306;2023-04-03T00:32:52;2.37;;;1.60;;
18899;SDS011;9582;52.018;6.306;2023-04-03T00:35:19;2.53;;;1.60;;
18899;SDS011;9582;52.018;6.306;2023-04-03T00:37:47;3.03;;;1.50;;
18899;SDS011;9582;52.018;6.306;2023-04-03T00:40:15;3.63;;;1.70;;
18899;SDS011;9582;52.018;6.306;2023-04-03T00:42:42;5.13;;;2.07;;
18899;SDS011;9582;52.018;6.306;2023-04-03T00:45:34;2.63;;;1.57;;
18899;SDS011;9582;52.018;6.306;2023-04-03T00:48:03;2.23;;;1.40;;
18899;SDS011;9582;52.018;6.306;2023-04-03T00:50:32;3.60;;;1.80;;
18899;SDS011;9582;52.018;6.306;2023-04-03T00:53:01;5.40;;;1.90;;
18899;SDS011;9582;52.018;6.306;2023-04-03T00:55:29;3.83;;;1.73;;
18899;SDS011;9582;52.018;6.306;2023-04-03T00:57:56;6.60;;;1.97;;
18899;SDS011;9582;52.018;6.306;2023-04-03T01:00:24;3.53;;;1.73;;
18899;SDS011;9582;52.018;6.306;2023-04-03T01:02:53;3.10;;;1.80;;
18899;SDS011;9582;52.018;6.306;2023-04-03T01:05:20;6.27;;;1.60;;
18899;SDS011;9582;52.018;6.306;2023-04-03T01:07:47;4.23;;;1.40;;
18899;SDS011;9582;52.018;6.306;2023-04-03T01:10:16;2.90;;;1.53;;
18899;SDS011;9582;52.018;6.306;2023-04-03T01:12:45;6.47;;;2.07;;
18899;SDS011;9582;52.018;6.306;2023-04-03T01:15:14;3.87;;;2.07;;
18899;SDS011;9582;52.018;6.306;2023-04-03T01:17:43;6.47;;;1.80;;
18899;SDS011;9582;52.018;6.306;2023-04-03T01:20:34;4.80;;;1.80;;
18899;SDS011;9582;52.018;6.306;2023-04-03T01:23:12;4.83;;;1.80;;
18899;SDS011;9582;52.018;6.306;2023-04-03T01:25:49;3.90;;;1.80;;
18899;SDS011;9582;52.018;6.306;2023-04-03T01:28:18;3.97;;;1.70;;
18899;SDS011;9582;52.018;6.306;2023-04-03T01:30:47;5.43;;;1.60;;
18899;SDS011;9582;52.018;6.306;2023-04-03T01:33:19;4.90;;;1.83;;
18899;SDS011;9582;52.018;6.306;2023-04-03T01:35:46;4.17;;;1.70;;
18899;SDS011;9582;52.018;6.306;2023-04-03T01:38:13;2.97;;;1.70;;
18899;SDS011;9582;52.018;6.306;2023-04-03T01:40:40;6.13;;;1.70;;
18899;SDS011;9582;52.018;6.306;2023-04-03T01:43:06;6.17;;;2.03;;
18899;SDS011;9582;52.018;6.306;2023-04-03T01:45:33;5.20;;;1.70;;
18899;SDS011;9582;52.018;6.306;2023-04-03T01:47:59;4.97;;;1.90;;
18899;SDS011;9582;52.018;6.306;2023-04-03T01:50:27;5.07;;;1.87;;
18899;SDS011;9582;52.018;6.306;2023-04-03T01:52:54;4.10;;;1.77;;
18899;SDS011;9582;52.018;6.306;2023-04-03T01:55:21;3.27;;;1.93;;
18899;SDS011;9582;52.018;6.306;2023-04-03T01:57:47;3.40;;;2.40;;
18899;SDS011;9582;52.018;6.306;2023-04-03T02:00:14;8.50;;;2.60;;
18899;SDS011;9582;52.018;6.306;2023-04-03T02:02:41;5.20;;;2.53;;
18899;SDS011;9582;52.018;6.306;2023-04-03T02:05:08;6.00;;;2.50;;
18899;SDS011;9582;52.018;6.306;2023-04-03T02:07:36;6.13;;;2.90;;
18899;SDS011;9582;52.018;6.306;2023-04-03T02:10:03;4.53;;;2.70;;
18899;SDS011;9582;52.018;6.306;2023-04-03T02:12:29;6.60;;;2.50;;
18899;SDS011;9582;52.018;6.306;2023-04-03T02:14:57;7.40;;;2.80;;
18899;SDS011;9582;52.018;6.306;2023-04-03T02:17:25;6.37;;;2.40;;
18899;SDS011;9582;52.018;6.306;2023-04-03T02:19:53;5.13;;;2.17;;
18899;SDS011;9582;52.018;6.306;2023-04-03T02:22:20;5.87;;;2.23;;
18899;SDS011;9582;52.018;6.306;2023-04-03T02:24:48;7.23;;;2.80;;
18899;SDS011;9582;52.018;6.306;2023-04-03T02:27:14;5.77;;;2.33;;
18899;SDS011;9582;52.018;6.306;2023-04-03T02:29:41;3.57;;;1.80;;
18899;SDS011;9582;52.018;6.306;2023-04-03T02:32:07;3.77;;;1.57;;
18899;SDS011;9582;52.018;6.306;2023-04-03T02:34:34;5.83;;;2.07;;
18899;SDS011;9582;52.018;6.306;2023-04-03T02:37:01;4.63;;;2.40;;
18899;SDS011;9582;52.018;6.306;2023-04-03T02:39:28;4.73;;;1.80;;
18899;SDS011;9582;52.018;6.306;2023-04-03T02:41:58;3.67;;;1.80;;
18899;SDS011;9582;52.018;6.306;2023-04-03T02:44:25;3.07;;;1.77;;
18899;SDS011;9582;52.018;6.306;2023-04-03T02:46:52;2.70;;;1.70;;
18899;SDS011;9582;52.018;6.306;2023-04-03T02:49:18;6.17;;;1.80;;
18899;SDS011;9582;52.018;6.306;2023-04-03T02:51:45;2.93;;;1.87;;
18899;SDS011;9582;52.018;6.306;2023-04-03T02:54:12;3.93;;;1.63;;
18899;SDS011;9582;52.018;6.306;2023-04-03T02:56:44;3.97;;;2.13;;
18899;SDS011;9582;52.018;6.306;2023-04-03T02:59:11;3.20;;;1.87;;
18899;SDS011;9582;52.018;6.306;2023-04-03T03:01:39;5.03;;;2.40;;
18899;SDS011;9582;52.018;6.306;2023-04-03T03:04:05;4.53;;;1.80;;
18899;SDS011;9582;52.018;6.306;2023-04-03T03:06:32;3.93;;;2.07;;
18899;SDS011;9582;52.018;6.306;2023-04-03T03:08:59;4.70;;;1.67;;
18899;SDS011;9582;52.018;6.306;2023-04-03T03:11:25;6.37;;;2.20;;
18899;SDS011;9582;52.018;6.306;2023-04-03T03:13:52;4.80;;;1.80;;
18899;SDS011;9582;52.018;6.306;2023-04-03T03:16:20;3.43;;;1.90;;
18899;SDS011;9582;52.018;6.306;2023-04-03T03:18:46;4.97;;;1.97;;
18899;SDS011;9582;52.018;6.306;2023-04-03T03:21:13;4.13;;;1.60;;
18899;SDS011;9582;52.018;6.306;2023-04-03T03:23:39;5.87;;;1.90;;
18899;SDS011;9582;52.018;6.306;2023-04-03T03:26:07;4.63;;;1.80;;
18899;SDS011;9582;52.018;6.306;2023-04-03T03:28:35;5.13;;;1.73;;
18899;SDS011;9582;52.018;6.306;2023-04-03T03:31:04;3.40;;;1.70;;
18899;SDS011;9582;52.018;6.306;2023-04-03T03:33:34;5.33;;;1.87;;
18899;SDS011;9582;52.018;6.306;2023-04-03T03:36:00;3.77;;;1.87;;
18899;SDS011;9582;52.018;6.306;2023-04-03T03:38:28;5.87;;;1.80;;
18899;SDS011;9582;52.018;6.306;2023-04-03T03:40:55;5.97;;;2.13;;
18899;SDS011;9582;52.018;6.306;2023-04-03T03:43:22;3.63;;;1.80;;
18899;SDS011;9582;52.018;6.306;2023-04-03T03:45:51;4.67;;;2.00;;
18899;SDS011;9582;52.018;6.306;2023-04-03T03:48:18;4.77;;;1.80;;
18899;SDS011;9582;52.018;6.306;2023-04-03T03:50:47;6.13;;;1.97;;
18899;SDS011;9582;52.018;6.306;2023-04-03T03:53:16;3.40;;;2.07;;
18899;SDS011;9582;52.018;6.306;2023-04-03T03:55:43;6.37;;;2.13;;
18899;SDS011;9582;52.018;6.306;2023-04-03T03:58:09;6.00;;;2.20;;
18899;SDS011;9582;52.018;6.306;2023-04-03T04:00:36;4.17;;;1.80;;
18899;SDS011;9582;52.018;6.306;2023-04-03T04:03:03;3.40;;;1.70;;
18899;SDS011;9582;52.018;6.306;2023-04-03T04:05:30;7.97;;;1.87;;
18899;SDS011;9582;52.018;6.306;2023-04-03T04:08:00;3.80;;;2.00;;
18899;SDS011;9582;52.018;6.306;2023-04-03T04:10:27;4.80;;;1.87;;
18899;SDS011;9582;52.018;6.306;2023-04-03T04:12:55;4.83;;;2.00;;
18899;SDS011;9582;52.018;6.306;2023-04-03T04:15:23;5.83;;;1.70;;
18899;SDS011;9582;52.018;6.306;2023-04-03T04:17:51;6.73;;;2.13;;
18899;SDS011;9582;52.018;6.306;2023-04-03T04:20:18;2.93;;;1.97;;
18899;SDS011;9582;52.018;6.306;2023-04-03T04:22:46;2.50;;;1.60;;
18899;SDS011;9582;52.018;6.306;2023-04-03T04:25:15;4.87;;;1.93;;
18899;SDS011;9582;52.018;6.306;2023-04-03T04:27:42;7.60;;;2.07;;
18899;SDS011;9582;52.018;6.306;2023-04-03T04:30:09;4.50;;;1.40;;
18899;SDS011;9582;52.018;6.306;2023-04-03T04:32:37;4.47;;;1.40;;
18899;SDS011;9582;52.018;6.306;2023-04-03T04:35:04;3.20;;;2.03;;
18899;SDS011;9582;52.018;6.306;2023-04-03T04:37:32;3.03;;;1.63;;
18899;SDS011;9582;52.018;6.306;2023-04-03T04:40:00;3.27;;;1.50;;
18899;SDS011;9582;52.018;6.306;2023-04-03T04:42:28;2.77;;;1.50;;
18899;SDS011;9582;52.018;6.306;2023-04-03T04:44:54;3.40;;;1.83;;
18899;SDS011;9582;52.018;6.306;2023-04-03T04:47:21;2.83;;;1.63;;
18899;SDS011;9582;52.018;6.306;2023-04-03T04:49:48;5.00;;;1.80;;
18899;SDS011;9582;52.018;6.306;2023-04-03T04:52:15;6.43;;;2.03;;
18899;SDS011;9582;52.018;6.306;2023-04-03T04:54:42;5.83;;;1.87;;
18899;SDS011;9582;52.018;6.306;2023-04-03T04:57:09;2.57;;;1.50;;
18899;SDS011;9582;52.018;6.306;2023-04-03T04:59:37;5.23;;;1.77;;
18899;SDS011;9582;52.018;6.306;2023-04-03T05:02:05;4.73;;;1.50;;
18899;SDS011;9582;52.018;6.306;2023-04-03T05:04:32;5.40;;;1.87;;
18899;SDS011;9582;52.018;6.306;2023-04-03T05:07:05;4.20;;;1.37;;
18899;SDS011;9582;52.018;6.306;2023-04-03T05:09:34;4.87;;;1.70;;
18899;SDS011;9582;52.018;6.306;2023-04-03T05:12:01;2.73;;;1.70;;
18899;SDS011;9582;52.018;6.306;2023-04-03T05:14:34;2.77;;;1.50;;
18899;SDS011;9582;52.018;6.306;2023-04-03T05:17:06;5.10;;;1.70;;
18899;SDS011;9582;52.018;6.306;2023-04-03T05:19:36;3.73;;;1.90;;
18899;SDS011;9582;52.018;6.306;2023-04-03T05:22:04;2.73;;;1.70;;
18899;SDS011;9582;52.018;6.306;2023-04-03T05:24:31;6.40;;;2.30;;
18899;SDS011;9582;52.018;6.306;2023-04-03T05:26:58;4.10;;;2.13;;
18899;SDS011;9582;52.018;6.306;2023-04-03T05:29:25;3.27;;;1.53;;
18899;SDS011;9582;52.018;6.306;2023-04-03T05:31:52;3.93;;;1.43;;
18899;SDS011;9582;52.018;6.306;2023-04-03T05:34:20;3.70;;;1.67;;
18899;SDS011;9582;52.018;6.306;2023-04-03T05:36:49;5.13;;;2.13;;
18899;SDS011;9582;52.018;6.306;2023-04-03T05:39:16;4.60;;;1.67;;
18899;SDS011;9582;52.018;6.306;2023-04-03T05:41:45;5.90;;;1.90;;
18899;SDS011;9582;52.018;6.306;2023-04-03T05:44:12;6.40;;;2.47;;
18899;SDS011;9582;52.018;6.306;2023-04-03T05:46:39;5.37;;;2.17;;
18899;SDS011;9582;52.018;6.306;2023-04-03T05:49:08;4.80;;;1.60;;
18899;SDS011;9582;52.018;6.306;2023-04-03T05:51:38;6.93;;;1.97;;
18899;SDS011;9582;52.018;6.306;2023-04-03T05:54:16;4.13;;;1.93;;
18899;SDS011;9582;52.018;6.306;2023-04-03T05:56:45;4.03;;;1.60;;
18899;SDS011;9582;52.018;6.306;2023-04-03T05:59:11;4.00;;;1.43;;
18899;SDS011;9582;52.018;6.306;2023-04-03T06:01:38;5.70;;;1.50;;
18899;SDS011;9582;52.018;6.306;2023-04-03T06:04:05;6.23;;;2.07;;
18899;SDS011;9582;52.018;6.306;2023-04-03T06:06:46;4.70;;;1.77;;
18899;SDS011;9582;52.018;6.306;2023-04-03T06:09:13;4.27;;;1.73;;
18899;SDS011;9582;52.018;6.306;2023-04-03T06:11:42;5.77;;;2.07;;
18899;SDS011;9582;52.018;6.306;2023-04-03T06:14:09;5.43;;;2.17;;
18899;SDS011;9582;52.018;6.306;2023-04-03T06:16:35;2.73;;;1.70;;
18899;SDS011;9582;52.018;6.306;2023-04-03T06:19:06;4.77;;;2.23;;
18899;SDS011;9582;52.018;6.306;2023-04-03T06:21:33;5.23;;;1.83;;
18899;SDS011;9582;52.018;6.306;2023-04-03T06:24:02;4.37;;;1.80;;
18899;SDS011;9582;52.018;6.306;2023-04-03T06:26:30;4.37;;;1.70;;
18899;SDS011;9582;52.018;6.306;2023-04-03T06:28:56;7.23;;;1.90;;
18899;SDS011;9582;52.018;6.306;2023-04-03T06:31:23;4.07;;;1.73;;
18899;SDS011;9582;52.018;6.306;2023-04-03T06:33:50;4.60;;;1.87;;
18899;SDS011;9582;52.018;6.306;2023-04-03T06:36:17;4.73;;;1.90;;
18899;SDS011;9582;52.018;6.306;2023-04-03T06:38:46;5.37;;;1.97;;
18899;SDS011;9582;52.018;6.306;2023-04-03T06:41:14;5.67;;;1.73;;
18899;SDS011;9582;52.018;6.306;2023-04-03T06:43:42;3.43;;;1.60;;
18899;SDS011;9582;52.018;6.306;2023-04-03T06:46:11;3.60;;;1.70;;
18899;SDS011;9582;52.018;6.306;2023-04-03T06:48:40;4.53;;;1.70;;
18899;SDS011;9582;52.018;6.306;2023-04-03T06:51:17;4.03;;;1.80;;
18899;SDS011;9582;52.018;6.306;2023-04-03T06:53:45;8.77;;;2.20;;
18899;SDS011;9582;52.018;6.306;2023-04-03T06:56:14;3.97;;;1.37;;
18899;SDS011;9582;52.018;6.306;2023-04-03T06:58:41;5.33;;;2.10;;
18899;SDS011;9582;52.018;6.306;2023-04-03T07:01:08;4.17;;;1.60;;
18899;SDS011;9582;52.018;6.306;2023-04-03T07:03:36;7.20;;;2.07;;
18899;SDS011;9582;52.018;6.306;2023-04-03T07:06:03;2.97;;;1.40;;
18899;SDS011;9582;52.018;6.306;2023-04-03T07:08:30;5.20;;;1.73;;
18899;SDS011;9582;52.018;6.306;2023-04-03T07:10:58;3.50;;;1.63;;
18899;SDS011;9582;52.018;6.306;2023-04-03T07:13:26;2.93;;;1.37;;
18899;SDS011;9582;52.018;6.306;2023-04-03T07:15:52;6.60;;;2.40;;
18899;SDS011;9582;52.018;6.306;2023-04-03T07:18:19;5.60;;;1.50;;
18899;SDS011;9582;52.018;6.306;2023-04-03T07:20:46;1.93;;;1.43;;
18899;SDS011;9582;52.018;6.306;2023-04-03T07:23:13;3.33;;;1.57;;
18899;SDS011;9582;52.018;6.306;2023-04-03T07:25:41;3.17;;;1.40;;
18899;SDS011;9582;52.018;6.306;2023-04-03T07:28:08;2.57;;;1.47;;
18899;SDS011;9582;52.018;6.306;2023-04-03T07:30:42;5.73;;;2.40;;
18899;SDS011;9582;52.018;6.306;2023-04-03T07:33:11;3.30;;;1.60;;
18899;SDS011;9582;52.018;6.306;2023-04-03T07:35:38;3.13;;;1.50;;
18899;SDS011;9582;52.018;6.306;2023-04-03T07:38:05;3.07;;;1.70;;
18899;SDS011;9582;52.018;6.306;2023-04-03T07:40:31;5.67;;;1.60;;
18899;SDS011;9582;52.018;6.306;2023-04-03T07:42:58;2.43;;;1.30;;
18899;SDS011;9582;52.018;6.306;2023-04-03T07:45:25;4.27;;;1.53;;
18899;SDS011;9582;52.018;6.306;2023-04-03T07:47:53;2.30;;;1.10;;
18899;SDS011;9582;52.018;6.306;2023-04-03T07:50:19;3.27;;;1.37;;
18899;SDS011;9582;52.018;6.306;2023-04-03T07:52:47;3.37;;;1.70;;
18899;SDS011;9582;52.018;6.306;2023-04-03T07:55:15;3.57;;;1.07;;
18899;SDS011;9582;52.018;6.306;2023-04-03T07:57:42;1.77;;;1.20;;
18899;SDS011;9582;52.018;6.306;2023-04-03T08:00:09;4.40;;;1.63;;
18899;SDS011;9582;52.018;6.306;2023-04-03T08:02:40;2.50;;;1.20;;
18899;SDS011;9582;52.018;6.306;2023-04-03T08:05:08;2.57;;;1.20;;
18899;SDS011;9582;52.018;6.306;2023-04-03T08:07:36;4.53;;;1.30;;
18899;SDS011;9582;52.018;6.306;2023-04-03T08:10:03;2.90;;;1.20;;
18899;SDS011;9582;52.018;6.306;2023-04-03T08:12:30;4.07;;;1.33;;
18899;SDS011;9582;52.018;6.306;2023-04-03T08:14:57;2.50;;;1.07;;
18899;SDS011;9582;52.018;6.306;2023-04-03T08:17:23;3.03;;;1.60;;
18899;SDS011;9582;52.018;6.306;2023-04-03T08:19:50;2.27;;;1.10;;
18899;SDS011;9582;52.018;6.306;2023-04-03T08:22:17;2.13;;;1.20;;
18899;SDS011;9582;52.018;6.306;2023-04-03T08:24:44;2.13;;;1.20;;
18899;SDS011;9582;52.018;6.306;2023-04-03T08:27:10;3.23;;;1.00;;
18899;SDS011;9582;52.018;6.306;2023-04-03T08:29:37;3.93;;;1.30;;
18899;SDS011;9582;52.018;6.306;2023-04-03T08:32:04;3.97;;;1.20;;
18899;SDS011;9582;52.018;6.306;2023-04-03T08:34:31;3.17;;;0.97;;
18899;SDS011;9582;52.018;6.306;2023-04-03T08:36:59;1.10;;;0.77;;
18899;SDS011;9582;52.018;6.306;2023-04-03T08:39:27;1.50;;;0.93;;
18899;SDS011;9582;52.018;6.306;2023-04-03T08:41:55;2.40;;;1.00;;
18899;SDS011;9582;52.018;6.306;2023-04-03T08:44:28;1.77;;;0.70;;
18899;SDS011;9582;52.018;6.306;2023-04-03T08:47:09;2.30;;;0.93;;
18899;SDS011;9582;52.018;6.306;2023-04-03T08:49:44;2.40;;;1.10;;
18899;SDS011;9582;52.018;6.306;2023-04-03T08:52:17;3.10;;;0.90;;
18899;SDS011;9582;52.018;6.306;2023-04-03T08:54:49;2.67;;;1.00;;
18899;SDS011;9582;52.018;6.306;2023-04-03T08:57:20;1.47;;;0.93;;
18899;SDS011;9582;52.018;6.306;2023-04-03T08:59:54;2.40;;;1.00;;
18899;SDS011;9582;52.018;6.306;2023-04-03T09:02:24;2.43;;;0.87;;
18899;SDS011;9582;52.018;6.306;2023-04-03T09:04:57;1.80;;;1.00;;
18899;SDS011;9582;52.018;6.306;2023-04-03T09:07:25;0.77;;;0.70;;
18899;SDS011;9582;52.018;6.306;2023-04-03T09:10:00;1.43;;;0.50;;
18899;SDS011;9582;52.018;6.306;2023-04-03T09:12:31;0.93;;;0.60;;
18899;SDS011;9582;52.018;6.306;2023-04-03T09:15:02;2.57;;;0.70;;
18899;SDS011;9582;52.018;6.306;2023-04-03T09:17:38;1.67;;;0.87;;
18899;SDS011;9582;52.018;6.306;2023-04-03T09:20:17;0.80;;;0.77;;
18899;SDS011;9582;52.018;6.306;2023-04-03T09:22:49;1.60;;;0.70;;
18899;SDS011;9582;52.018;6.306;2023-04-03T09:25:20;2.63;;;0.80;;
18899;SDS011;9582;52.018;6.306;2023-04-03T09:27:48;1.17;;;0.67;;
18899;SDS011;9582;52.018;6.306;2023-04-03T09:30:15;3.20;;;1.13;;
18899;SDS011;9582;52.018;6.306;2023-04-03T09:32:44;1.47;;;0.60;;
18899;SDS011;9582;52.018;6.306;2023-04-03T09:37:58;1.43;;;0.73;;
18899;SDS011;9582;52.018;6.306;2023-04-03T09:40:34;1.27;;;0.60;;
18899;SDS011;9582;52.018;6.306;2023-04-03T09:45:50;0.77;;;0.70;;
18899;SDS011;9582;52.018;6.306;2023-04-03T09:48:18;1.53;;;0.87;;
18899;SDS011;9582;52.018;6.306;2023-04-03T09:50:56;1.70;;;0.97;;
18899;SDS011;9582;52.018;6.306;2023-04-03T09:53:26;1.13;;;0.60;;
18899;SDS011;9582;52.018;6.306;2023-04-03T09:56:00;2.73;;;0.77;;
18899;SDS011;9582;52.018;6.306;2023-04-03T09:58:28;3.00;;;1.33;;
18899;SDS011;9582;52.018;6.306;2023-04-03T10:00:58;2.37;;;0.90;;
18899;SDS011;9582;52.018;6.306;2023-04-03T10:03:27;2.67;;;0.93;;
18899;SDS011;9582;52.018;6.306;2023-04-03T10:05:56;2.70;;;0.80;;
18899;SDS011;9582;52.018;6.306;2023-04-03T10:08:24;0.40;;;0.40;;
18899;SDS011;9582;52.018;6.306;2023-04-03T10:11:13;3.27;;;0.70;;
18899;SDS011;9582;52.018;6.306;2023-04-03T10:13:55;1.70;;;0.60;;
18899;SDS011;9582;52.018;6.306;2023-04-03T10:16:25;2.37;;;0.97;;
18899;SDS011;9582;52.018;6.306;2023-04-03T10:18:57;1.63;;;0.80;;
18899;SDS011;9582;52.018;6.306;2023-04-03T10:21:33;2.97;;;0.70;;
18899;SDS011;9582;52.018;6.306;2023-04-03T10:24:07;1.90;;;0.70;;
18899;SDS011;9582;52.018;6.306;2023-04-03T10:26:41;1.80;;;0.47;;
18899;SDS011;9582;52.018;6.306;2023-04-03T10:29:17;0.90;;;0.70;;
18899;SDS011;9582;52.018;6.306;2023-04-03T10:31:56;1.97;;;0.67;;
18899;SDS011;9582;52.018;6.306;2023-04-03T10:34:29;4.53;;;0.43;;
18899;SDS011;9582;52.018;6.306;2023-04-03T10:37:01;2.60;;;0.63;;
18899;SDS011;9582;52.018;6.306;2023-04-03T10:39:37;0.63;;;0.40;;
18899;SDS011;9582;52.018;6.306;2023-04-03T10:42:17;1.07;;;0.50;;
18899;SDS011;9582;52.018;6.306;2023-04-03T10:45:05;0.87;;;0.60;;
18899;SDS011;9582;52.018;6.306;2023-04-03T10:47:45;0.93;;;0.40;;
18899;SDS011;9582;52.018;6.306;2023-04-03T10:50:23;0.87;;;0.53;;
18899;SDS011;9582;52.018;6.306;2023-04-03T10:53:00;0.80;;;0.43;;
18899;SDS011;9582;52.018;6.306;2023-04-03T10:55:33;1.67;;;0.90;;
18899;SDS011;9582;52.018;6.306;2023-04-03T10:58:05;1.30;;;0.70;;
18899;SDS011;9582;52.018;6.306;2023-04-03T11:00:36;0.40;;;0.40;;
18899;SDS011;9582;52.018;6.306;2023-04-03T11:03:06;0.80;;;0.47;;
18899;SDS011;9582;52.018;6.306;2023-04-03T11:05:40;2.93;;;0.50;;
18899;SDS011;9582;52.018;6.306;2023-04-03T11:08:11;2.90;;;0.80;;
18899;SDS011;9582;52.018;6.306;2023-04-03T11:10:48;1.07;;;0.60;;
18899;SDS011;9582;52.018;6.306;2023-04-03T11:13:19;0.90;;;0.63;;
18899;SDS011;9582;52.018;6.306;2023-04-03T11:15:50;2.83;;;0.80;;
18899;SDS011;9582;52.018;6.306;2023-04-03T11:18:20;0.50;;;0.40;;
18899;SDS011;9582;52.018;6.306;2023-04-03T11:20:53;2.00;;;0.80;;
18899;SDS011;9582;52.018;6.306;2023-04-03T11:23:28;1.60;;;0.83;;
18899;SDS011;9582;52.018;6.306;2023-04-03T11:25:59;1.87;;;0.70;;
18899;SDS011;9582;52.018;6.306;2023-04-03T11:28:34;2.13;;;0.80;;
18899;SDS011;9582;52.018;6.306;2023-04-03T11:31:06;1.57;;;1.00;;
18899;SDS011;9582;52.018;6.306;2023-04-03T11:33:43;1.27;;;0.60;;
18899;SDS011;9582;52.018;6.306;2023-04-03T11:36:18;2.53;;;0.80;;
18899;SDS011;9582;52.018;6.306;2023-04-03T11:38:48;1.23;;;0.70;;
18899;SDS011;9582;52.018;6.306;2023-04-03T11:41:22;2.10;;;0.80;;
18899;SDS011;9582;52.018;6.306;2023-04-03T11:43:57;1.90;;;0.80;;
18899;SDS011;9582;52.018;6.306;2023-04-03T11:58:25;1.60;;;0.60;;
18899;SDS011;9582;52.018;6.306;2023-04-03T12:01:02;1.27;;;0.90;;
18899;SDS011;9582;52.018;6.306;2023-04-03T12:09:35;0.63;;;0.63;;
18899;SDS011;9582;52.018;6.306;2023-04-03T12:12:31;2.33;;;1.10;;
18899;SDS011;9582;52.018;6.306;2023-04-03T12:15:17;1.47;;;1.07;;
18899;SDS011;9582;52.018;6.306;2023-04-03T12:17:47;2.40;;;1.10;;
18899;SDS011;9582;52.018;6.306;2023-04-03T12:23:24;2.20;;;1.30;;
18899;SDS011;9582;52.018;6.306;2023-04-03T12:25:52;2.13;;;1.10;;
18899;SDS011;9582;52.018;6.306;2023-04-03T12:28:29;1.17;;;0.70;;
18899;SDS011;9582;52.018;6.306;2023-04-03T12:31:03;1.27;;;0.70;;
18899;SDS011;9582;52.018;6.306;2023-04-03T12:33:36;2.40;;;0.80;;
18899;SDS011;9582;52.018;6.306;2023-04-03T12:36:13;2.37;;;1.13;;
18899;SDS011;9582;52.018;6.306;2023-04-03T12:38:54;2.53;;;1.03;;
18899;SDS011;9582;52.018;6.306;2023-04-03T12:41:30;1.50;;;0.77;;
18899;SDS011;9582;52.018;6.306;2023-04-03T12:44:07;2.63;;;0.90;;
18899;SDS011;9582;52.018;6.306;2023-04-03T12:46:45;1.80;;;0.83;;
18899;SDS011;9582;52.018;6.306;2023-04-03T12:49:36;2.03;;;0.90;;
18899;SDS011;9582;52.018;6.306;2023-04-03T12:52:05;1.43;;;1.03;;
18899;SDS011;9582;52.018;6.306;2023-04-03T12:54:45;1.87;;;0.97;;
18899;SDS011;9582;52.018;6.306;2023-04-03T12:57:15;2.10;;;1.00;;
18899;SDS011;9582;52.018;6.306;2023-04-03T12:59:44;3.93;;;1.10;;
18899;SDS011;9582;52.018;6.306;2023-04-03T13:02:18;2.30;;;0.90;;
18899;SDS011;9582;52.018;6.306;2023-04-03T13:04:50;2.17;;;0.80;;
18899;SDS011;9582;52.018;6.306;2023-04-03T13:07:19;2.20;;;1.30;;
18899;SDS011;9582;52.018;6.306;2023-04-03T13:09:54;2.77;;;1.13;;
18899;SDS011;9582;52.018;6.306;2023-04-03T13:12:22;1.87;;;1.30;;
18899;SDS011;9582;52.018;6.306;2023-04-03T13:14:52;2.70;;;1.57;;
18899;SDS011;9582;52.018;6.306;2023-04-03T13:17:20;2.40;;;1.10;;
18899;SDS011;9582;52.018;6.306;2023-04-03T13:19:48;2.27;;;1.07;;
18899;SDS011;9582;52.018;6.306;2023-04-03T13:22:24;3.47;;;1.10;;
18899;SDS011;9582;52.018;6.306;2023-04-03T13:24:56;2.43;;;1.47;;
18899;SDS011;9582;52.018;6.306;2023-04-03T13:27:26;1.80;;;1.00;;
18899;SDS011;9582;52.018;6.306;2023-04-03T13:29:54;1.83;;;1.37;;
18899;SDS011;9582;52.018;6.306;2023-04-03T13:32:25;2.27;;;1.03;;
18899;SDS011;9582;52.018;6.306;2023-04-03T13:34:56;2.50;;;1.33;;
18899;SDS011;9582;52.018;6.306;2023-04-03T13:37:23;1.43;;;1.20;;
18899;SDS011;9582;52.018;6.306;2023-04-03T13:39:58;2.23;;;1.10;;
18899;SDS011;9582;52.018;6.306;2023-04-03T13:42:27;1.93;;;1.20;;
18899;SDS011;9582;52.018;6.306;2023-04-03T13:45:16;3.00;;;1.20;;
18899;SDS011;9582;52.018;6.306;2023-04-03T13:47:46;2.87;;;1.20;;
18899;SDS011;9582;52.018;6.306;2023-04-03T13:50:18;3.00;;;1.33;;
18899;SDS011;9582;52.018;6.306;2023-04-03T13:52:48;1.90;;;1.00;;
18899;SDS011;9582;52.018;6.306;2023-04-03T13:55:19;1.37;;;1.00;;
18899;SDS011;9582;52.018;6.306;2023-04-03T13:57:48;2.10;;;1.13;;
18899;SDS011;9582;52.018;6.306;2023-04-03T14:00:32;6.63;;;1.73;;
18899;SDS011;9582;52.018;6.306;2023-04-03T14:03:02;2.83;;;1.40;;
18899;SDS011;9582;52.018;6.306;2023-04-03T14:05:39;2.00;;;1.03;;
18899;SDS011;9582;52.018;6.306;2023-04-03T14:08:05;2.80;;;1.00;;
18899;SDS011;9582;52.018;6.306;2023-04-03T14:10:32;1.90;;;1.50;;
18899;SDS011;9582;52.018;6.306;2023-04-03T14:12:59;3.03;;;1.47;;
18899;SDS011;9582;52.018;6.306;2023-04-03T14:15:27;1.10;;;1.00;;
18899;SDS011;9582;52.018;6.306;2023-04-03T14:17:56;3.13;;;1.60;;
18899;SDS011;9582;52.018;6.306;2023-04-03T14:20:24;3.30;;;1.23;;
18899;SDS011;9582;52.018;6.306;2023-04-03T14:22:53;3.10;;;1.30;;
18899;SDS011;9582;52.018;6.306;2023-04-03T14:25:21;2.43;;;1.00;;
18899;SDS011;9582;52.018;6.306;2023-04-03T14:27:49;2.03;;;1.20;;
18899;SDS011;9582;52.018;6.306;2023-04-03T14:30:18;2.50;;;1.40;;
18899;SDS011;9582;52.018;6.306;2023-04-03T14:32:48;1.63;;;0.97;;
18899;SDS011;9582;52.018;6.306;2023-04-03T14:35:16;2.67;;;1.20;;
18899;SDS011;9582;52.018;6.306;2023-04-03T14:37:45;3.30;;;1.27;;
18899;SDS011;9582;52.018;6.306;2023-04-03T14:40:14;2.77;;;1.30;;
18899;SDS011;9582;52.018;6.306;2023-04-03T14:42:42;2.63;;;1.13;;
18899;SDS011;9582;52.018;6.306;2023-04-03T14:45:10;1.70;;;1.33;;
18899;SDS011;9582;52.018;6.306;2023-04-03T14:47:39;2.37;;;1.60;;
18899;SDS011;9582;52.018;6.306;2023-04-03T14:50:11;2.10;;;1.27;;
18899;SDS011;9582;52.018;6.306;2023-04-03T14:52:40;2.13;;;1.20;;
18899;SDS011;9582;52.018;6.306;2023-04-03T14:55:08;2.20;;;1.10;;
18899;SDS011;9582;52.018;6.306;2023-04-03T14:57:36;4.53;;;1.37;;
18899;SDS011;9582;52.018;6.306;2023-04-03T15:00:06;4.27;;;1.70;;
18899;SDS011;9582;52.018;6.306;2023-04-03T15:02:34;2.80;;;2.00;;
18899;SDS011;9582;52.018;6.306;2023-04-03T15:05:03;3.00;;;1.47;;
18899;SDS011;9582;52.018;6.306;2023-04-03T15:07:32;1.90;;;1.10;;
18899;SDS011;9582;52.018;6.306;2023-04-03T15:10:01;2.40;;;1.23;;
18899;SDS011;9582;52.018;6.306;2023-04-03T15:12:29;2.23;;;1.20;;
18899;SDS011;9582;52.018;6.306;2023-04-03T15:14:57;3.40;;;1.50;;
18899;SDS011;9582;52.018;6.306;2023-04-03T15:17:23;3.53;;;1.80;;
18899;SDS011;9582;52.018;6.306;2023-04-03T15:19:50;2.30;;;1.30;;
18899;SDS011;9582;52.018;6.306;2023-04-03T15:22:17;2.37;;;1.47;;
18899;SDS011;9582;52.018;6.306;2023-04-03T15:24:45;4.03;;;1.50;;
18899;SDS011;9582;52.018;6.306;2023-04-03T15:27:13;3.70;;;1.50;;
18899;SDS011;9582;52.018;6.306;2023-04-03T15:29:41;2.33;;;1.33;;
18899;SDS011;9582;52.018;6.306;2023-04-03T15:32:10;3.00;;;1.07;;
18899;SDS011;9582;52.018;6.306;2023-04-03T15:34:37;2.77;;;1.20;;
18899;SDS011;9582;52.018;6.306;2023-04-03T15:37:05;4.37;;;1.53;;
18899;SDS011;9582;52.018;6.306;2023-04-03T15:39:31;1.80;;;1.30;;
18899;SDS011;9582;52.018;6.306;2023-04-03T15:41:58;4.97;;;1.37;;